Flight Track Log - Related Links

Times and Time Zones

All times are in EDT time to prevent confusion due to time zone crossing. See the N76AD flight status page for this flight to view local times or setup timezone preferences in your user account.


Time Position Orientation Groundspeed Altitude Reporting Facility
EDT Latitude Longitude Course Direction KTS MPH feet Rate Location/Type
Fri 08:50:34 PM 42.7403 -73.8083 196° South 68 78 900  Level Boston Center
Fri 08:51:40 PM 42.7192 -73.8164 196° South 73 84 1,800 756 Climbing Boston Center
Fri 08:52:41 PM 42.6986 -73.8103 168° South 75 86 2,500 738 Climbing Boston Center
Fri 08:53:42 PM 42.6756 -73.8042 169° South 82 94 3,300 694 Climbing Boston Center
Fri 08:54:42 PM 42.6528 -73.8064 184° South 87 100 3,900 595 Climbing Boston Center
Fri 08:55:43 PM 42.6297 -73.8058 179° South 88 101 4,500 595 Climbing Boston Center
Fri 08:56:43 PM 42.6047 -73.8053 179° South 91 105 5,100 545 Climbing Boston Center
Fri 08:57:44 PM 42.5797 -73.8133 193° South 95 109 5,600 492 Climbing Boston Center
Fri 08:58:45 PM 42.5528 -73.8069 170° South 98 113 6,100 496 Climbing Boston Center
Fri 08:59:45 PM 42.5256 -73.8064 179° South 101 116 6,600 472 Climbing Boston Center
Fri 09:00:52 PM 42.4922 -73.8086 183° South 101 116 7,100 205 Climbing Boston Center
Fri 09:02:11 PM 42.4503 -73.8161 188° South 119 137 7,100  Level Boston Center
Fri 09:03:11 PM 42.4192 -73.8125 175° South 114 131 7,100 -50 Level Boston Center
Fri 09:04:12 PM 42.3881 -73.8147 183° South 110 127 7,000 -47 Descending Boston Center
Fri 09:05:19 PM 42.3544 -73.8139 179° South 105 121 7,000  Level Boston Center
Fri 09:06:32 PM 42.3192 -73.8103 176° South 107 123 7,000 45 Level Boston Center
Fri 09:07:32 PM 42.2878 -73.8208 194° South 107 123 7,100 50 Climbing Boston Center
Fri 09:08:32 PM 42.2564 -73.8231 183° South 107 123 7,100 -50 Level Boston Center
Fri 09:09:32 PM 42.2275 -73.8194 175° South 107 123 7,000 -50 Descending Boston Center
Fri 09:10:32 PM 42.2067 -73.7967 141° Southeast 107 123 7,000  Level Boston Center
Fri 09:11:32 PM 42.1800 -73.7708 144° Southeast 107 123 7,000 50 Level Boston Center
Fri 09:12:32 PM 42.1572 -73.7564 155° Southeast 101 116 7,100 50 Climbing Boston Center
Fri 09:13:32 PM 42.1261 -73.7389 157° South 101 116 7,100  Level Boston Center
Fri 09:14:32 PM 42.0992 -73.7356 175° South 107 123 7,100  Level Boston Center
Fri 09:15:32 PM 42.0636 -73.7347 179° South 107 123 7,100  Level Boston Center
Fri 09:16:32 PM 42.0389 -73.7258 165° South 112 129 7,100 -50 Level Boston Center
Fri 09:17:32 PM 42.0078 -73.7086 158° South 107 123 7,000 -50 Descending Boston Center
Fri 09:18:32 PM 41.9828 -73.6969 161° South 107 123 7,000  Level Boston Center
Fri 09:19:32 PM 41.9539 -73.6794 156° South 107 123 7,000  Level Boston Center
Fri 09:20:32 PM 41.9289 -73.6678 161° South 107 123 7,000  Level Boston Center
Fri 09:21:32 PM 41.8978 -73.6561 164° South 107 123 7,000  Level Boston Center
Fri 09:22:32 PM 41.8708 -73.6472 166° South 107 123 7,000  Level Boston Center
Fri 09:23:32 PM 41.8397 -73.6328 161° South 107 123 7,000  Level Boston Center
Fri 09:24:32 PM 41.8128 -73.6239 166° South 107 123 7,000  Level Boston Center
Fri 09:25:32 PM 41.7836 -73.6067 156° South 107 123 7,000 -50 Level Boston Center
Fri 09:26:32 PM 41.7567 -73.6006 170° South 107 123 6,900 -250 Descending Boston Center
Fri 09:27:32 PM 41.7256 -73.5917 168° South 107 123 6,500 -450 Descending Boston Center
Fri 09:28:32 PM 41.7006 -73.5828 165° South 107 123 6,000 -227 Descending Boston Center
Fri 09:29:44 PM 41.6694 -73.5600 151° Southeast 107 123 6,000 33 Level Boston Center
Fri 09:31:35 PM 41.6167 -73.5333 159° South 107 123 6,100 35 Climbing New York TRACON
Fri 09:32:35 PM 41.5833 -73.5167 159° South 109 125 6,100  Level New York TRACON
Fri 09:33:35 PM 41.5500 -73.5167 180° South 111 128 6,100  Level New York TRACON
Fri 09:34:36 PM 41.5333 -73.5000 143° Southeast 107 123 6,100  Level New York TRACON
Fri 09:35:35 PM 41.5000 -73.4833 159° South 110 127 6,100  Level New York TRACON
Fri 09:36:35 PM 41.4667 -73.4667 159° South 103 119 6,100  Level New York TRACON
Fri 09:37:30 PM 41.4500 -73.4667 180° South 106 122 6,100 -50 Level New York TRACON
Fri 09:38:35 PM 41.4167 -73.4333 143° Southeast 100 115 6,000  Descending New York TRACON
Fri 09:39:30 PM 41.4000 -73.4167 143° Southeast 99 114 6,100 -52 Climbing New York TRACON
Fri 09:40:30 PM 41.4000 -73.3833 90° East 95 109 5,900 -250 Descending New York TRACON
Fri 09:41:30 PM 41.3833 -73.3500 124° Southeast 86 99 5,600 -300 Descending New York TRACON
Fri 09:42:30 PM 41.3667 -73.3333 143° Southeast 89 102 5,300 -286 Descending New York TRACON
Fri 09:43:36 PM 41.3333 -73.3000 143° Southeast 97 112 5,000 -300 Descending New York TRACON
Fri 09:44:30 PM 41.3167 -73.3000 180° South 104 120 4,700 -211 Descending New York TRACON
Fri 09:45:30 PM 41.2833 -73.3000 180° South 111 128 4,600 -150 Descending New York TRACON
Fri 09:46:30 PM 41.2500 -73.3000 180° South 111 128 4,400 -200 Descending New York TRACON
Fri 09:47:30 PM 41.2333 -73.3167 217° Southwest 111 128 4,200 -202 Descending New York TRACON
Fri 09:48:29 PM 41.2000 -73.3333 201° Southwest 110 127 4,000 -200 Descending New York TRACON
Fri 09:49:30 PM 41.1667 -73.3333 180° South 102 117 3,800 -298 Descending New York TRACON
Fri 09:50:30 PM 41.1333 -73.3167 159° South 104 120 3,400 -300 Descending New York TRACON
Fri 09:51:30 PM 41.1167 -73.3167 180° South 103 119 3,200 -150 Descending New York TRACON
Fri 09:52:30 PM 41.0833 -73.3000 159° South 106 122 3,100 -50 Descending New York TRACON
Fri 09:53:30 PM 41.0500 -73.3000 180° South 118 136 3,100 -50 Level New York TRACON
Fri 09:54:30 PM 41.0167 -73.3167 201° Southwest 117 135 3,000  Descending New York TRACON
Fri 09:55:24 PM 41.0000 -73.3167 180° South 116 133 3,100  Climbing New York TRACON
Fri 09:56:24 PM 40.9667 -73.3500 217° Southwest 128 147 3,000 -100 Descending New York TRACON
Fri 09:57:24 PM 40.9500 -73.3833 237° Southwest 111 128 2,900 -190 Descending New York TRACON
Fri 09:58:30 PM 40.9167 -73.4000 201° Southwest 109 125 2,600 -286 Descending New York TRACON
Fri 09:59:30 PM 40.9000 -73.4167 217° Southwest 105 121 2,300 -300 Descending New York TRACON
Fri 10:00:30 PM 40.8667 -73.4500 217° Southwest 110 127 2,000 -150 Descending New York TRACON
Fri 10:01:30 PM 40.8667 -73.4833 270° West 100 115 2,000  Level New York TRACON
Fri 10:02:30 PM 40.8500 -73.5167 237° Southwest 99 114 2,000  Level New York TRACON
Fri 10:03:30 PM 40.8167 -73.5333 201° Southwest 105 121 2,000  Level New York TRACON
Fri 10:04:24 PM 40.8000 -73.5167 143° Southeast 106 122 2,000 -150 Level New York TRACON
Fri 10:05:30 PM 40.7833 -73.4833 123° Southeast 90 104 1,700 -400 Descending New York TRACON
Fri 10:06:24 PM 40.7667 -73.4667 143° Southeast 70 81 1,200 -450 Descending New York TRACON
Fri 10:07:30 PM 40.7500 -73.4500 143° Southeast 74 85 800 -364 Descending New York TRACON

Login

Don't have an account? Register now (free) for customized features, flight alerts, and more!